Time;durP1;ratioP1;P1;durP2;ratioP2;P2;SDS_P1;SDS_P2;PMS_P1;PMS_P2;Temp;Humidity;BMP_temperature;BMP_pressure;BME280_temperature;BME280_humidity;BME280_pressure;Samples;Min_cycle;Max_cycle;Signal;HPM_P1;HPM_P2
2022/11/28 00:01:44;;;;;;;9.50;5.82;;;;;;;7.23;66.45;100460.22;5031852;28;20022;-44
2022/11/28 00:04:10;;;;;;;9.35;5.70;;;;;;;7.26;65.88;100456.41;5031679;28;20025;-45
2022/11/28 00:06:44;;;;;;;11.85;6.65;;;;;;;7.29;68.18;100458.75;5031890;28;20036;-45
2022/11/28 00:09:10;;;;;;;11.90;6.55;;;;;;;6.99;68.97;100460.19;5031664;28;20076;-46
2022/11/28 00:11:37;;;;;;;11.13;6.75;;;;;;;7.06;69.16;100453.22;5031639;28;20067;-46
2022/11/28 00:14:03;;;;;;;11.40;6.03;;;;;;;7.34;68.02;100452.94;5031401;28;20026;-46
2022/11/28 00:16:28;;;;;;;10.98;6.60;;;;;;;7.36;67.67;100454.41;5031588;28;20025;-47
2022/11/28 00:18:54;;;;;;;10.38;5.95;;;;;;;7.47;66.91;100461.22;5031427;28;20041;-45
2022/11/28 00:21:19;;;;;;;11.07;6.63;;;;;;;7.67;67.19;100458.22;5031649;28;20026;-46
2022/11/28 00:23:47;;;;;;;12.77;7.18;;;;;;;7.49;68.94;100456.59;5030001;28;20046;-42
2022/11/28 00:26:18;;;;;;;11.57;6.88;;;;;;;7.58;69.37;100457.41;5031208;28;20069;-44
2022/11/28 00:28:44;;;;;;;13.15;7.10;;;;;;;7.63;69.28;100455.09;5031175;28;20037;-44
2022/11/28 00:31:14;;;;;;;9.93;6.75;;;;;;;7.53;69.75;100457.09;5031312;28;20101;-44
2022/11/28 00:33:40;;;;;;;11.88;7.25;;;;;;;7.47;69.66;100460.41;5031075;28;20210;-44
2022/11/28 00:36:06;;;;;;;12.05;7.20;;;;;;;7.46;69.45;100464.84;5031165;28;20029;-44
2022/11/28 00:38:32;;;;;;;14.05;7.05;;;;;;;7.53;69.82;100457.09;5031174;28;20021;-45
2022/11/28 00:41:04;;;;;;;11.70;7.53;;;;;;;7.74;69.66;100454.75;5031331;28;20039;-44
2022/11/28 00:43:29;;;;;;;11.90;7.25;;;;;;;7.33;71.29;100446.81;5030991;28;20029;-44
2022/11/28 00:45:55;;;;;;;12.50;7.57;;;;;;;7.36;71.57;100451.78;5031033;28;20025;-45
2022/11/28 00:48:20;;;;;;;10.90;7.15;;;;;;;7.33;72.36;100448.63;5031028;28;20029;-45
2022/11/28 00:50:46;;;;;;;13.38;7.45;;;;;;;7.56;71.31;100440.88;5030750;28;20466;-44
2022/11/28 00:53:11;;;;;;;12.45;7.32;;;;;;;7.33;72.26;100441.53;5030356;28;20029;-45
2022/11/28 00:55:38;;;;;;;15.63;7.53;;;;;;;7.26;73.51;100439.72;5030503;28;20025;-44
2022/11/28 00:58:03;;;;;;;11.80;7.35;;;;;;;7.22;74.00;100441.84;5030550;28;20105;-45
2022/11/28 01:00:29;;;;;;;11.10;7.25;;;;;;;7.03;74.83;100438.53;5030685;28;20502;-44
2022/11/28 01:02:55;;;;;;;13.00;7.72;;;;;;;7.25;74.82;100433.56;5030414;28;20025;-45
2022/11/28 01:05:20;;;;;;;11.20;6.93;;;;;;;7.35;73.36;100442.19;5030546;28;20022;-44
2022/11/28 01:07:45;;;;;;;13.23;7.15;;;;;;;7.27;73.91;100436.06;5030535;28;20021;-45
2022/11/28 01:10:11;;;;;;;11.85;7.03;;;;;;;7.11;75.23;100428.94;5030249;28;20021;-45
2022/11/28 01:12:37;;;;;;;10.02;6.47;;;;;;;7.32;74.53;100428.47;5029891;28;20021;-44
2022/11/28 01:15:04;;;;;;;11.00;6.65;;;;;;;7.09;75.09;100433.56;5029570;28;20023;-44
2022/11/28 01:17:30;;;;;;;11.80;6.75;;;;;;;6.85;75.97;100435.16;5029913;28;20025;-44
2022/11/28 01:19:55;;;;;;;11.93;6.72;;;;;;;6.94;75.30;100428.09;5030491;28;20379;-44
2022/11/28 01:22:21;;;;;;;11.68;6.80;;;;;;;7.07;75.70;100430.25;5030072;28;20510;-44
2022/11/28 01:24:46;;;;;;;12.07;6.93;;;;;;;6.67;76.24;100422.09;5029902;28;20045;-45
2022/11/28 01:27:11;;;;;;;11.05;6.68;;;;;;;6.45;77.42;100428.78;5030207;28;20086;-46
2022/11/28 01:29:37;;;;;;;11.43;6.85;;;;;;;6.78;76.28;100428.91;5030055;28;20071;-46
2022/11/28 01:32:02;;;;;;;9.52;6.28;;;;;;;6.99;75.43;100421.31;5030122;28;20326;-47
2022/11/28 01:34:28;;;;;;;12.77;7.53;;;;;;;6.74;76.26;100424.88;5029833;28;20167;-44
2022/11/28 01:36:53;;;;;;;11.13;6.80;;;;;;;6.58;76.29;100429.16;5030076;28;20465;-44
2022/11/28 01:39:18;;;;;;;11.48;6.75;;;;;;;6.57;76.11;100427.50;5029816;28;20026;-45
2022/11/28 01:41:44;;;;;;;11.27;6.78;;;;;;;6.51;77.27;100422.03;5029971;28;20032;-44
2022/11/28 01:44:12;;;;;;;10.60;6.75;;;;;;;6.55;76.71;100424.19;5029758;28;20052;-45
2022/11/28 01:46:38;;;;;;;12.18;6.93;;;;;;;6.70;76.81;100426.22;5029664;28;20347;-45
2022/11/28 01:49:13;;;;;;;9.75;6.72;;;;;;;6.90;76.28;100430.22;5028833;28;20041;-46
2022/11/28 01:51:43;;;;;;;10.43;6.53;;;;;;;6.60;77.22;100423.72;5029084;28;20025;-48
2022/11/28 01:54:08;;;;;;;11.02;6.50;;;;;;;6.54;77.70;100419.88;5028788;28;20025;-46
2022/11/28 01:56:54;;;;;;;10.05;6.72;;;;;;;6.46;77.71;100420.69;5028099;28;20470;-48
2022/11/28 01:59:25;;;;;;;9.90;6.47;;;;;;;6.56;77.14;100415.25;5029126;28;20095;-46
2022/11/28 02:01:51;;;;;;;11.75;6.45;;;;;;;6.56;76.79;100417.09;5029932;28;20044;-47
2022/11/28 02:04:16;;;;;;;11.77;6.68;;;;;;;6.51;77.83;100407.00;5030425;28;20018;-48
2022/11/28 02:06:42;;;;;;;11.07;6.65;;;;;;;6.60;77.85;100405.19;5029548;28;20401;-48
2022/11/28 02:09:13;;;;;;;10.45;6.90;;;;;;;6.62;77.98;100406.69;5029384;28;20100;-46
2022/11/28 02:11:53;;;;;;;10.15;6.57;;;;;;;6.52;78.88;100411.28;5029391;28;20143;-47
2022/11/28 02:14:54;;;;;;;10.75;6.60;;;;;;;6.63;78.90;100404.88;5029448;28;20493;-46
2022/11/28 02:17:42;;;;;;;11.35;6.80;;;;;;;6.78;79.11;100403.25;5029959;28;20034;-46
2022/11/28 02:20:40;;;;;;;9.95;6.07;;;;;;;6.51;80.30;100400.88;5029401;28;20057;-45
2022/11/28 02:23:25;;;;;;;11.05;6.88;;;;;;;6.49;78.65;100401.03;5020031;28;20690;-45
2022/11/28 02:26:36;;;;;;;12.05;7.50;;;;;;;6.60;79.20;100397.25;5029311;28;20114;-45
2022/11/28 02:29:29;;;;;;;11.75;6.95;;;;;;;6.52;79.45;100402.53;5028795;28;20585;-47
2022/11/28 02:32:09;;;;;;;13.10;7.70;;;;;;;6.46;80.49;100404.81;5028434;28;20036;-47
2022/11/28 02:35:05;;;;;;;11.80;7.65;;;;;;;6.61;79.39;100397.09;5028898;28;20116;-46
2022/11/28 02:37:31;;;;;;;12.32;7.78;;;;;;;6.71;80.11;100394.31;5028788;28;20035;-46
2022/11/28 02:40:24;;;;;;;12.48;7.28;;;;;;;6.78;79.48;100397.16;5028856;28;20377;-47
2022/11/28 02:43:11;;;;;;;14.25;7.88;;;;;;;6.46;79.41;100396.06;5028888;28;20037;-45
2022/11/28 02:45:44;;;;;;;15.40;8.13;;;;;;;6.30;80.76;100398.66;5028795;28;20104;-46
2022/11/28 02:48:18;;;;;;;15.55;8.32;;;;;;;6.40;80.48;100399.38;5032059;28;20430;-46
2022/11/28 02:50:51;;;;;;;12.98;7.68;;;;;;;6.36;79.44;100403.28;5032625;28;20110;-48
2022/11/28 02:53:21;;;;;;;14.77;8.20;;;;;;;6.59;79.36;100393.78;5032640;28;20021;-47
2022/11/28 02:55:50;;;;;;;14.40;7.97;;;;;;;6.46;79.21;100404.00;5032642;28;20037;-45
2022/11/28 02:58:17;;;;;;;14.77;8.27;;;;;;;6.53;79.35;100399.72;5032646;28;20049;-47
2022/11/28 03:00:45;;;;;;;14.55;8.05;;;;;;;6.67;79.76;100395.63;5032580;28;20032;-45
2022/11/28 03:03:20;;;;;;;12.77;7.85;;;;;;;6.86;79.34;100402.44;5032608;28;20041;-47
2022/11/28 03:06:16;;;;;;;13.30;7.95;;;;;;;6.54;81.49;100396.09;5032384;28;20032;-46
2022/11/28 03:08:51;;;;;;;15.73;8.13;;;;;;;6.83;79.55;100397.47;5031515;28;20116;-46
2022/11/28 03:11:16;;;;;;;12.40;7.50;;;;;;;6.82;79.34;100403.75;5032473;28;20052;-45
2022/11/28 03:14:00;;;;;;;13.30;7.40;;;;;;;6.79;78.34;100404.91;5032455;28;20449;-45
2022/11/28 03:17:04;;;;;;;13.32;7.80;;;;;;;6.58;79.93;100402.69;5032324;28;20032;-45
2022/11/28 03:19:35;;;;;;;12.63;7.85;;;;;;;6.41;79.79;100396.53;5032160;28;20459;-45
2022/11/28 03:22:36;;;;;;;12.60;8.10;;;;;;;6.61;78.33;100397.09;5032308;28;20508;-45
2022/11/28 03:25:11;;;;;;;14.25;8.68;;;;;;;6.30;80.52;100394.19;5009806;28;20053;-46
2022/11/28 03:28:06;;;;;;;13.80;8.63;;;;;;;6.39;81.23;100400.34;5029030;28;20107;-45
2022/11/28 03:30:41;;;;;;;15.73;8.60;;;;;;;6.44;82.17;100395.41;5031154;28;20037;-46
2022/11/28 03:33:08;;;;;;;15.50;9.00;;;;;;;6.67;81.81;100397.47;5032256;28;20400;-47
2022/11/28 03:35:38;;;;;;;14.77;9.27;;;;;;;6.57;82.52;100402.88;5032161;28;20649;-45
2022/11/28 03:38:11;;;;;;;15.77;8.95;;;;;;;6.65;81.59;100393.13;5032011;28;20086;-46
2022/11/28 03:40:46;;;;;;;14.63;8.90;;;;;;;6.82;79.62;100403.75;5031973;28;20053;-45
2022/11/28 03:43:16;;;;;;;13.90;9.13;;;;;;;6.79;78.87;100404.06;5031908;28;20048;-50
2022/11/28 03:45:47;;;;;;;14.35;9.32;;;;;;;6.43;80.83;100407.78;5030403;28;20056;-48
2022/11/28 03:48:25;;;;;;;15.55;9.25;;;;;;;6.31;81.45;100401.13;5031304;28;20025;-46
2022/11/28 03:50:59;;;;;;;18.65;9.63;;;;;;;6.32;81.50;100400.16;5031550;28;20033;-46
2022/11/28 03:53:33;;;;;;;16.40;9.10;;;;;;;6.36;81.27;100398.00;5031577;28;20040;-46
2022/11/28 03:56:06;;;;;;;16.13;9.30;;;;;;;6.30;82.39;100399.47;5031630;28;20025;-45
2022/11/28 03:58:57;;;;;;;13.40;8.77;;;;;;;6.43;80.95;100393.75;5031433;28;20031;-46
2022/11/28 04:01:32;;;;;;;15.32;8.80;;;;;;;6.59;79.41;100399.09;5031814;28;20159;-46
2022/11/28 04:04:15;;;;;;;16.48;9.05;;;;;;;6.42;80.71;100402.69;5031564;28;20028;-46
2022/11/28 04:06:41;;;;;;;23.50;14.35;;;;;;;6.35;81.21;100404.28;5031518;28;20025;-46
2022/11/28 04:09:13;;;;;;;50.90;27.33;;;;;;;6.43;80.11;100404.31;5031691;28;20036;-46
2022/11/28 04:12:05;;;;;;;49.55;26.92;;;;;;;6.40;79.11;100400.19;5031513;28;20049;-46
2022/11/28 04:14:35;;;;;;;58.63;30.38;;;;;;;6.53;78.86;100405.03;5031821;28;20033;-47
2022/11/28 04:17:01;;;;;;;17.88;9.73;;;;;;;6.52;78.76;100416.56;5031783;28;20025;-45
2022/11/28 04:19:32;;;;;;;14.63;7.90;;;;;;;6.39;79.55;100418.84;5031751;28;20030;-46
2022/11/28 04:22:03;;;;;;;13.68;7.78;;;;;;;6.10;80.14;100414.75;5031687;28;20025;-45
2022/11/28 04:24:38;;;;;;;11.48;6.82;;;;;;;6.11;80.66;100427.00;5031699;28;20041;-47
2022/11/28 04:27:08;;;;;;;12.40;7.25;;;;;;;5.90;82.58;100423.88;5031490;28;20040;-44
2022/11/28 04:29:38;;;;;;;12.63;7.57;;;;;;;6.14;82.93;100421.38;5031687;28;20026;-47
2022/11/28 04:32:06;;;;;;;13.77;7.60;;;;;;;6.36;79.52;100424.44;5031687;28;20057;-45
2022/11/28 04:34:35;;;;;;;12.43;7.55;;;;;;;6.19;80.33;100420.94;5030163;28;20024;-44
2022/11/28 04:37:03;;;;;;;12.57;7.72;;;;;;;5.85;80.93;100425.16;5031377;28;20041;-45
2022/11/28 04:39:31;;;;;;;55.10;30.70;;;;;;;5.73;83.29;100436.13;5031308;28;20405;-46
2022/11/28 04:42:05;;;;;;;29.20;14.98;;;;;;;5.64;82.69;100428.16;5031072;28;20489;-46
2022/11/28 04:44:50;;;;;;;12.70;7.90;;;;;;;5.80;80.58;100423.97;5031382;28;20017;-45
2022/11/28 04:47:16;;;;;;;14.55;8.45;;;;;;;5.86;80.61;100429.47;5031533;28;20103;-46
2022/11/28 04:49:42;;;;;;;15.30;8.90;;;;;;;5.51;82.49;100416.38;5031516;28;20017;-45
2022/11/28 04:52:11;;;;;;;13.80;8.13;;;;;;;5.48;84.11;100418.31;5031068;28;20489;-46
2022/11/28 04:54:51;;;;;;;13.93;7.47;;;;;;;5.59;83.37;100432.25;5030956;28;20053;-45
2022/11/28 04:57:32;;;;;;;13.02;7.30;;;;;;;5.54;82.78;100429.22;5031082;28;20656;-44
2022/11/28 05:00:05;;;;;;;12.13;6.78;;;;;;;5.63;81.41;100428.31;5031113;28;20220;-48
2022/11/28 05:02:31;;;;;;;12.20;7.05;;;;;;;5.56;81.81;100430.75;5030767;28;20021;-45
2022/11/28 05:04:57;;;;;;;12.77;7.07;;;;;;;5.58;83.09;100433.22;5030779;28;20101;-46
2022/11/28 05:07:23;;;;;;;12.20;6.47;;;;;;;5.38;81.65;100436.06;5030683;28;20110;-45
2022/11/28 05:09:48;;;;;;;13.68;7.28;;;;;;;5.51;81.88;100432.19;5030730;28;20022;-46
2022/11/28 05:12:14;;;;;;;13.60;7.65;;;;;;;5.39;82.56;100437.72;5031191;28;20081;-45
2022/11/28 05:14:39;;;;;;;11.85;6.57;;;;;;;5.56;82.31;100438.69;5030699;28;20465;-45
2022/11/28 05:17:05;;;;;;;27.15;15.07;;;;;;;5.35;83.24;100435.53;5030620;28;20441;-47
2022/11/28 05:19:31;;;;;;;33.88;18.45;;;;;;;5.48;82.95;100436.81;5030693;28;20033;-45
2022/11/28 05:21:56;;;;;;;18.50;10.68;;;;;;;5.60;83.17;100436.56;5030273;28;20083;-43
2022/11/28 05:24:22;;;;;;;14.40;8.18;;;;;;;5.56;83.71;100427.25;5029872;28;20072;-46
2022/11/28 05:26:47;;;;;;;12.40;7.38;;;;;;;5.35;83.41;100433.72;5031368;28;20060;-44
2022/11/28 05:29:13;;;;;;;12.85;7.35;;;;;;;5.38;84.05;100430.78;5030766;28;20037;-45
2022/11/28 05:31:38;;;;;;;77.65;45.20;;;;;;;5.43;85.12;100431.16;5028905;28;20091;-46
2022/11/28 05:34:04;;;;;;;66.55;42.28;;;;;;;5.39;85.94;100431.63;5030668;28;20111;-46
2022/11/28 05:36:29;;;;;;;17.98;10.80;;;;;;;5.36;85.50;100424.00;5030775;28;20025;-44
2022/11/28 05:38:55;;;;;;;14.98;9.45;;;;;;;5.40;85.17;100427.97;5030241;28;20096;-45
2022/11/28 05:41:28;;;;;;;13.75;8.50;;;;;;;5.23;86.33;100427.00;5030004;28;20060;-45
2022/11/28 05:43:56;;;;;;;14.75;9.52;;;;;;;5.33;85.96;100425.13;5030296;28;20041;-44
2022/11/28 05:46:23;;;;;;;13.98;8.40;;;;;;;5.22;85.98;100439.41;5030142;28;20033;-45
2022/11/28 05:48:48;;;;;;;13.55;8.60;;;;;;;5.33;85.44;100435.69;5030129;28;20104;-45
2022/11/28 05:51:14;;;;;;;14.63;8.85;;;;;;;5.31;86.04;100435.00;5028350;28;20112;-47
2022/11/28 05:53:39;;;;;;;13.75;8.27;;;;;;;5.34;86.06;100429.41;5028665;28;20027;-46
2022/11/28 05:56:16;;;;;;;24.83;14.45;;;;;;;5.45;85.91;100434.47;5028792;28;20026;-46
2022/11/28 05:58:42;;;;;;;30.70;16.88;;;;;;;5.51;86.50;100424.28;5029131;28;20090;-46
2022/11/28 06:01:19;;;;;;;15.85;9.70;;;;;;;5.35;86.70;100436.38;5029824;28;20025;-44
2022/11/28 06:03:44;;;;;;;18.02;9.82;;;;;;;5.38;87.17;100443.16;5029579;28;20099;-46
2022/11/28 06:06:15;;;;;;;21.27;12.77;;;;;;;5.47;86.28;100440.41;5029895;28;20033;-45
2022/11/28 06:08:42;;;;;;;20.95;12.98;;;;;;;5.48;86.35;100436.81;5030045;28;20028;-46
2022/11/28 06:11:07;;;;;;;35.17;18.80;;;;;;;5.35;87.13;100440.81;5030055;28;20044;-44
2022/11/28 06:13:33;;;;;;;17.48;9.02;;;;;;;5.52;86.83;100439.97;5028930;28;20044;-44
2022/11/28 06:15:58;;;;;;;30.45;15.45;;;;;;;5.41;87.03;100446.31;5030511;28;20029;-46
2022/11/28 06:18:24;;;;;;;30.67;15.40;;;;;;;5.36;88.15;100451.22;5031058;28;20398;-45
2022/11/28 06:20:49;;;;;;;16.25;9.10;;;;;;;5.37;88.03;100452.03;5030900;28;20038;-49
2022/11/28 06:23:15;;;;;;;13.52;8.68;;;;;;;5.26;87.98;100448.66;5034372;28;20493;-45
2022/11/28 06:25:40;;;;;;;20.23;9.40;;;;;;;5.28;88.08;100448.50;5033974;28;20341;-43
2022/11/28 06:28:06;;;;;;;15.25;8.77;;;;;;;5.37;88.72;100449.41;5033947;28;20036;-43
2022/11/28 06:30:31;;;;;;;18.95;9.32;;;;;;;5.48;89.16;100452.66;5033218;28;20037;-44
2022/11/28 06:32:57;;;;;;;15.10;8.70;;;;;;;5.48;88.32;100447.38;5032723;28;20030;-44
2022/11/28 06:35:22;;;;;;;13.80;8.20;;;;;;;5.40;88.10;100441.19;5032529;28;20026;-43
2022/11/28 06:37:47;;;;;;;14.35;7.95;;;;;;;5.30;89.43;100441.28;5033272;28;20037;-44
2022/11/28 06:40:13;;;;;;;16.00;9.35;;;;;;;5.37;89.06;100447.59;5032718;28;20453;-45
2022/11/28 06:42:39;;;;;;;15.20;8.32;;;;;;;5.45;87.18;100454.75;5033305;28;20105;-46
2022/11/28 06:45:04;;;;;;;15.32;8.45;;;;;;;5.32;87.78;100441.94;5033699;28;20029;-45
2022/11/28 06:47:30;;;;;;;14.18;8.05;;;;;;;5.32;87.91;100454.31;5033940;28;20053;-44
2022/11/28 06:49:55;;;;;;;15.45;8.02;;;;;;;5.25;88.75;100446.16;5033521;28;20032;-44
2022/11/28 06:52:21;;;;;;;16.13;8.13;;;;;;;5.11;89.36;100455.44;5033889;28;20083;-47
2022/11/28 06:54:46;;;;;;;14.98;9.13;;;;;;;5.38;89.01;100449.25;5033300;28;20045;-46
2022/11/28 06:57:12;;;;;;;18.70;8.80;;;;;;;5.22;89.02;100439.41;5033171;28;20401;-46
2022/11/28 06:59:37;;;;;;;14.65;7.97;;;;;;;5.18;88.46;100450.38;5033395;28;20155;-44
2022/11/28 07:02:03;;;;;;;14.65;8.57;;;;;;;5.21;89.26;100445.63;5033331;28;20075;-46
2022/11/28 07:04:29;;;;;;;16.52;8.48;;;;;;;5.30;88.82;100443.91;5033202;28;20430;-46
2022/11/28 07:06:54;;;;;;;17.30;9.02;;;;;;;5.17;88.58;100441.66;5033689;28;20024;-44
2022/11/28 07:09:20;;;;;;;20.10;9.40;;;;;;;5.35;89.36;100446.09;5032991;28;20393;-44
2022/11/28 07:11:45;;;;;;;17.55;9.70;;;;;;;5.37;89.71;100447.59;5033398;28;20104;-45
2022/11/28 07:14:10;;;;;;;16.58;9.38;;;;;;;5.22;90.84;100451.75;5033143;28;20025;-45
2022/11/28 07:16:36;;;;;;;16.92;9.65;;;;;;;5.34;90.43;100447.91;5032960;28;20026;-45
2022/11/28 07:19:02;;;;;;;18.00;10.23;;;;;;;5.35;90.51;100443.44;5032828;28;20108;-45
2022/11/28 07:21:28;;;;;;;17.45;10.15;;;;;;;5.31;89.63;100442.09;5033046;28;20041;-45
2022/11/28 07:23:54;;;;;;;19.42;10.38;;;;;;;5.33;89.38;100440.97;5032643;28;20052;-45
2022/11/28 07:26:21;;;;;;;17.60;9.80;;;;;;;5.38;88.25;100436.06;5033014;28;20027;-48
2022/11/28 07:28:47;;;;;;;17.13;9.98;;;;;;;5.34;87.99;100444.44;5033046;28;20028;-45
2022/11/28 07:31:16;;;;;;;16.38;9.65;;;;;;;5.24;87.30;100436.59;5031990;28;20026;-45
2022/11/28 07:33:43;;;;;;;15.13;8.75;;;;;;;4.94;88.00;100432.53;5032387;28;20042;-44
2022/11/28 07:36:15;;;;;;;15.23;8.77;;;;;;;4.95;87.51;100435.03;5032726;28;20086;-48
2022/11/28 07:38:40;;;;;;;16.38;8.85;;;;;;;4.83;87.55;100433.56;5032562;28;20442;-46
2022/11/28 07:41:09;;;;;;;16.00;9.15;;;;;;;4.88;88.15;100433.97;5032522;28;20029;-44
2022/11/28 07:43:35;;;;;;;15.80;9.18;;;;;;;4.88;89.26;100440.06;5032712;28;20071;-44
2022/11/28 07:46:06;;;;;;;14.45;9.10;;;;;;;5.07;88.01;100433.81;5032481;28;20026;-46
2022/11/28 07:48:32;;;;;;;14.13;8.50;;;;;;;4.95;88.24;100428.91;5032497;28;20083;-44
2022/11/28 07:50:58;;;;;;;15.02;8.45;;;;;;;5.07;87.83;100433.00;5032657;28;20025;-46
2022/11/28 07:53:23;;;;;;;13.88;8.80;;;;;;;5.23;87.53;100427.00;5032410;28;20029;-44
2022/11/28 07:55:49;;;;;;;14.55;8.63;;;;;;;5.10;87.23;100427.38;5032616;28;20021;-45
2022/11/28 07:58:14;;;;;;;13.75;8.35;;;;;;;5.15;87.92;100430.41;5032522;28;20025;-45
2022/11/28 08:00:40;;;;;;;13.23;8.13;;;;;;;5.08;88.35;100427.56;5032210;28;20025;-44
2022/11/28 08:03:05;;;;;;;14.00;8.30;;;;;;;5.08;88.28;100430.22;5032460;28;20022;-47
2022/11/28 08:05:31;;;;;;;15.10;8.70;;;;;;;5.25;87.40;100425.06;5032703;28;20021;-43
2022/11/28 08:07:56;;;;;;;12.60;7.75;;;;;;;5.05;86.68;100427.84;5032327;28;20485;-45
2022/11/28 08:10:21;;;;;;;11.13;7.20;;;;;;;4.97;87.33;100424.31;5032494;28;20036;-45
2022/11/28 08:12:47;;;;;;;11.15;6.88;;;;;;;4.96;86.75;100420.84;5032324;28;20523;-45
2022/11/28 08:15:12;;;;;;;12.85;7.25;;;;;;;5.01;87.26;100423.03;5032163;28;20151;-45
2022/11/28 08:17:38;;;;;;;12.50;7.65;;;;;;;5.02;87.48;100412.31;5032123;28;20032;-44
2022/11/28 08:20:04;;;;;;;12.02;7.25;;;;;;;4.97;87.45;100414.59;5032330;28;20144;-44
2022/11/28 08:22:29;;;;;;;9.82;6.63;;;;;;;5.04;87.09;100417.44;5032202;28;20029;-46
2022/11/28 08:24:55;;;;;;;15.05;8.00;;;;;;;5.18;87.00;100416.06;5031960;28;20517;-46
2022/11/28 08:27:20;;;;;;;14.82;7.75;;;;;;;5.23;86.68;100419.09;5032321;28;20413;-45
2022/11/28 08:29:46;;;;;;;15.15;7.95;;;;;;;5.23;87.47;100417.28;5032453;28;20026;-44
2022/11/28 08:32:11;;;;;;;16.77;8.35;;;;;;;5.34;87.56;100425.97;5032324;28;20596;-45
2022/11/28 08:34:37;;;;;;;15.20;8.10;;;;;;;5.28;86.75;100416.84;5032160;28;20021;-44
2022/11/28 08:37:02;;;;;;;15.52;7.72;;;;;;;5.35;86.20;100417.91;5032226;28;20032;-45
2022/11/28 08:39:27;;;;;;;13.55;8.25;;;;;;;5.30;86.49;100420.16;5032354;28;20443;-44
2022/11/28 08:41:58;;;;;;;13.45;7.60;;;;;;;5.22;85.64;100414.81;5032255;28;20530;-44
2022/11/28 08:44:25;;;;;;;14.35;8.80;;;;;;;5.34;85.33;100420.69;5031315;28;20029;-44
2022/11/28 08:46:51;;;;;;;12.90;8.52;;;;;;;5.39;85.16;100413.16;5031804;28;20108;-45
2022/11/28 08:49:16;;;;;;;11.02;6.78;;;;;;;5.33;85.19;100411.09;5031437;28;20152;-44
2022/11/28 08:51:42;;;;;;;12.13;7.63;;;;;;;5.38;85.74;100414.13;5031776;28;20167;-44
2022/11/28 08:54:07;;;;;;;11.68;6.88;;;;;;;5.29;86.67;100414.06;5031538;28;20132;-44
2022/11/28 08:56:33;;;;;;;14.00;7.32;;;;;;;5.49;85.53;100403.31;5031331;28;20029;-44
2022/11/28 08:58:58;;;;;;;10.57;6.75;;;;;;;5.34;85.56;100395.09;5031157;28;20028;-45
2022/11/28 09:01:25;;;;;;;13.82;7.75;;;;;;;5.53;84.96;100396.72;5031157;28;20048;-45
2022/11/28 09:03:51;;;;;;;12.55;7.88;;;;;;;5.56;84.98;100401.72;5031099;28;20021;-46
2022/11/28 09:06:19;;;;;;;14.10;7.55;;;;;;;5.73;84.88;100397.38;5030962;28;20037;-45
2022/11/28 09:08:44;;;;;;;12.27;7.60;;;;;;;5.63;84.84;100388.72;5031218;28;20028;-45
2022/11/28 09:11:12;;;;;;;13.52;7.55;;;;;;;5.66;85.76;100385.75;5031187;28;20029;-46
2022/11/28 09:13:38;;;;;;;11.27;6.65;;;;;;;5.73;85.36;100380.69;5030885;28;20543;-36
2022/11/28 09:16:04;;;;;;;12.15;7.13;;;;;;;5.63;84.80;100380.78;5031098;28;20112;-36
2022/11/28 09:18:29;;;;;;;12.30;7.50;;;;;;;5.61;84.51;100380.94;5030950;28;20022;-36
2022/11/28 09:20:59;;;;;;;14.90;9.25;;;;;;;5.52;84.24;100376.59;5030620;28;20028;-36
2022/11/28 09:23:25;;;;;;;13.00;7.78;;;;;;;5.55;83.78;100378.91;5031095;28;20509;-36
2022/11/28 09:25:50;;;;;;;14.05;7.82;;;;;;;5.55;84.33;100365.72;5030415;28;20046;-48
2022/11/28 09:28:16;;;;;;;12.27;8.32;;;;;;;5.50;85.17;100370.63;5030552;28;20025;-45
2022/11/28 09:30:41;;;;;;;12.90;7.43;;;;;;;5.64;84.83;100366.63;5030226;28;20548;-45
2022/11/28 09:33:07;;;;;;;11.88;7.00;;;;;;;5.53;84.31;100358.94;5030445;28;20025;-45
2022/11/28 09:35:32;;;;;;;10.82;6.93;;;;;;;5.55;84.77;100362.25;5030652;28;20032;-36
2022/11/28 09:37:58;;;;;;;12.18;6.80;;;;;;;5.63;85.08;100357.03;5030392;28;20104;-35
2022/11/28 09:40:39;;;;;;;12.38;7.45;;;;;;;5.61;84.92;100351.88;5030726;28;20025;-36
2022/11/28 09:43:35;;;;;;;11.65;7.82;;;;;;;5.50;86.05;100352.16;5030585;28;20021;-35
2022/11/28 09:46:08;;;;;;;11.68;7.78;;;;;;;5.70;86.15;100349.31;5030335;28;20021;-37
2022/11/28 09:48:37;;;;;;;12.98;7.97;;;;;;;5.64;85.20;100340.22;5030500;28;20544;-45
2022/11/28 09:51:21;;;;;;;12.40;7.80;;;;;;;5.71;85.54;100337.75;5030230;28;20017;-47
2022/11/28 09:54:06;;;;;;;15.50;9.32;;;;;;;5.60;86.08;100329.13;5028836;28;20021;-44
2022/11/28 09:56:32;;;;;;;12.80;8.60;;;;;;;5.87;84.24;100329.91;5028810;28;20032;-45
2022/11/28 09:59:02;;;;;;;13.35;8.10;;;;;;;5.85;84.54;100327.44;5029926;28;20440;-47
2022/11/28 10:01:27;;;;;;;;;;;;;;;5.91;84.37;100328.59;5030557;28;20033;-46
2022/11/28 10:04:05;;;;;;;10.32;7.43;;;;;;;5.95;84.59;100329.13;5029792;28;20418;-45
2022/11/28 10:07:08;;;;;;;13.45;9.27;;;;;;;6.02;86.06;100328.34;5029926;28;20030;-46
2022/11/28 10:09:45;;;;;;;11.18;7.40;;;;;;;5.90;84.19;100326.94;5030225;28;20025;-45
2022/11/28 10:12:34;;;;;;;15.90;11.00;;;;;;;5.91;84.79;100322.50;5030438;28;20490;-47
2022/11/28 10:15:24;;;;;;;15.55;9.35;;;;;;;5.68;84.97;100312.50;5010543;28;20543;-45
2022/11/28 10:17:53;;;;;;;19.83;12.60;;;;;;;5.94;85.00;100319.53;5029771;28;20021;-45
2022/11/28 10:20:27;;;;;;;11.88;7.53;;;;;;;5.88;83.89;100316.56;5029729;28;20264;-45
2022/11/28 10:23:18;;;;;;;12.35;7.88;;;;;;;5.96;83.56;100307.88;5029905;28;20052;-47
2022/11/28 10:25:50;;;;;;;11.77;7.88;;;;;;;5.96;84.22;100307.00;5029763;28;20092;-44
2022/11/28 10:28:21;;;;;;;11.88;7.93;;;;;;;5.94;84.38;100306.31;5029818;28;20017;-44
2022/11/28 10:31:00;;;;;;;15.63;9.95;;;;;;;6.01;84.37;100307.38;5029786;28;20032;-44
2022/11/28 10:33:39;;;;;;;17.48;9.05;;;;;;;6.08;83.90;100292.53;5030234;28;20390;-45
2022/11/28 10:36:05;;;;;;;13.30;8.70;;;;;;;6.17;82.09;100302.16;5029527;28;20086;-44
2022/11/28 10:38:33;;;;;;;18.35;13.00;;;;;;;5.99;83.14;100294.31;5029947;28;20026;-44
2022/11/28 10:41:11;;;;;;;10.68;7.38;;;;;;;6.30;81.53;100288.44;5029965;28;20401;-44
2022/11/28 10:43:58;;;;;;;11.05;6.57;;;;;;;6.04;81.69;100273.53;5029846;28;20052;-46
2022/11/28 10:46:38;;;;;;;12.48;7.88;;;;;;;6.24;82.88;100291.75;5029802;28;20025;-44
2022/11/28 10:49:18;;;;;;;16.95;11.13;;;;;;;6.19;83.31;100284.31;5029970;28;20018;-45
2022/11/28 10:51:50;;;;;;;15.32;9.90;;;;;;;6.11;82.79;100289.59;5029861;28;20068;-45
2022/11/28 10:54:33;;;;;;;10.68;7.57;;;;;;;5.96;84.04;100289.38;5030166;28;20476;-45
2022/11/28 10:57:17;;;;;;;12.80;8.52;;;;;;;5.94;83.67;100279.91;5029591;28;20028;-44
2022/11/28 11:00:04;;;;;;;12.70;8.40;;;;;;;6.07;84.56;100273.22;5029823;28;20056;-44
2022/11/28 11:02:33;;;;;;;12.73;7.65;;;;;;;6.19;84.14;100270.28;5029548;28;20049;-44
2022/11/28 11:04:58;;;;;;;14.20;7.93;;;;;;;6.43;83.38;100272.94;5029702;28;20033;-46
2022/11/28 11:07:28;;;;;;;15.95;9.45;;;;;;;6.47;83.69;100273.44;5030372;28;20034;-45
2022/11/28 11:09:56;;;;;;;11.65;7.43;;;;;;;6.60;82.78;100271.13;5033153;28;20401;-46
2022/11/28 11:12:31;;;;;;;13.20;8.70;;;;;;;6.52;82.41;100267.69;5033277;28;20037;-45
2022/11/28 11:14:57;;;;;;;13.90;8.88;;;;;;;6.40;83.01;100265.34;5033343;28;20059;-44
2022/11/28 11:17:34;;;;;;;10.65;6.88;;;;;;;6.43;81.12;100259.72;5032948;28;20108;-46
2022/11/28 11:19:59;;;;;;;8.65;6.10;;;;;;;6.46;81.00;100255.94;5032725;28;20034;-45
2022/11/28 11:22:30;;;;;;;11.35;7.43;;;;;;;6.61;79.96;100258.75;5032750;28;20147;-44
2022/11/28 11:25:12;;;;;;;11.63;6.63;;;;;;;6.48;78.82;100253.13;5032573;28;20053;-45
2022/11/28 11:27:45;;;;;;;10.85;7.40;;;;;;;6.51;80.69;100258.06;5032961;28;20022;-44
2022/11/28 11:30:34;;;;;;;9.57;6.40;;;;;;;6.45;80.16;100257.75;5032833;28;20018;-46
2022/11/28 11:33:02;;;;;;;11.10;7.03;;;;;;;6.72;80.22;100257.59;5032939;28;20109;-45
2022/11/28 11:35:35;;;;;;;11.23;6.93;;;;;;;6.68;80.74;100246.50;5032699;28;20108;-44
2022/11/28 11:38:21;;;;;;;9.25;5.93;;;;;;;6.66;79.58;100240.56;5032189;28;20025;-46
2022/11/28 11:40:50;;;;;;;12.13;6.90;;;;;;;6.53;79.80;100233.13;5032522;28;20030;-45